Sea Drift — WDC2818 — position and weather

sailwx.info

Track history (hours):
 
Tides and Currents Weather Stations Pressure Air Temp Water Temp Dewpoint Dewpoint Depression Visibility Wind Speed Wind Dir Waves Ship Positions

Sea Drift

Owner: Marquette Transportation Company Gulf-Inland, LLC, Jefferson, LA. More information available from US FCC via Universal Licensing System and Coast Guard Vessel Documentation Center.

Last reported at 2016-Jun-06 06:33 UTC. Time now 2016-Jun-27 13:14 UTC.
Position N 29°34' W 094°56'.
Warning: this ship's position is 21 days out of date.

Date/timePositionNaut miles runAvg speedWind from/ knotsBaromVisibWave heightAir tempDewpointWater temp
2016-Jun-06 06:33N 29°34' W 094°56'9 7.6
2016-Jun-06 05:23N 29°27' W 094°50'66 4.4
2016-Jun-05 14:22N 30°01' W 093°45'4 5.3
2016-Jun-05 13:33N 30°04' W 093°41'5 4.5
2016-Jun-05 12:33N 30°04' W 093°36'5 4.8
2016-Jun-05 11:33N 30°04' W 093°31'5 4.7
2016-Jun-05 10:33N 30°04' W 093°25'2 2.3
2016-Jun-05 09:33N 30°04' W 093°23'3 3.1
2016-Jun-05 08:33N 30°05' W 093°20'3 3.2
2016-Jun-05 07:33N 30°04' W 093°16'0 0.1
2016-Jun-05 06:33N 30°04' W 093°16'0 0.1
2016-Jun-05 05:33N 30°04' W 093°16'0 0.1
2016-Jun-05 04:33N 30°04' W 093°16'4 3.8
2016-Jun-05 03:33N 30°01' W 093°14'4 4.4
2016-Jun-05 02:33N 29°57' W 093°11'4 4.0
2016-Jun-05 01:33N 29°56' W 093°06'18 4.4
2016-Jun-04 21:27N 29°58' W 092°45'102 3.4
2016-Jun-03 15:27N 29°32' W 090°51'4 4.8
2016-Jun-03 14:33N 29°32' W 090°46'4 3.7
2016-Jun-03 13:33N 29°34' W 090°43'0 0.1
2016-Jun-03 12:33N 29°34' W 090°43'3 2.7
2016-Jun-03 11:33N 29°37' W 090°42'4 3.9
2016-Jun-03 10:33N 29°35' W 090°38'3 3.4
2016-Jun-03 09:33N 29°34' W 090°34'4 4.1
2016-Jun-03 08:33N 29°34' W 090°29'26 2.9
2016-Jun-02 23:30N 29°47' W 090°04'0 0.5
2016-Jun-02 22:33N 29°47' W 090°04'2 1.9
2016-Jun-02 21:33N 29°49' W 090°04'3 3.4
2016-Jun-02 20:33N 29°52' W 090°01'2 2.1
2016-Jun-02 19:33N 29°50' W 090°03'0 0.0
2016-Jun-02 18:33N 29°50' W 090°03'0 0.0
2016-Jun-02 17:33N 29°50' W 090°03'0 0.0
2016-Jun-02 16:33N 29°50' W 090°03'2 2.1
2016-Jun-02 15:33N 29°52' W 090°01'2 0.7
2016-Jun-02 12:16N 29°53' W 089°60'0 0.0
2016-Jun-02 11:33N 29°53' W 089°60'2 1.6
2016-Jun-02 10:33N 29°55' W 089°59'0 0.5
2016-Jun-02 09:33N 29°55' W 089°58'1 1.1
2016-Jun-02 08:33N 29°55' W 089°57'0 0.0
2016-Jun-02 07:31N 29°55' W 089°57'0 0.0
2016-Jun-02 06:33N 29°55' W 089°57'0 0.0
2016-Jun-02 05:33N 29°55' W 089°57'0 0.0
2016-Jun-02 04:21N 29°55' W 089°57'0 0.0
2016-Jun-02 03:33N 29°55' W 089°57'0 0.0
2016-Jun-02 02:32N 29°55' W 089°57'0 0.0
2016-Jun-02 01:32N 29°55' W 089°57'0 0.0
2016-Jun-02 00:31N 29°55' W 089°57'0 0.0
2016-Jun-01 23:33N 29°55' W 089°57'0 0.0
2016-Jun-01 22:33N 29°55' W 089°57'0 0.0
2016-Jun-01 21:33N 29°55' W 089°57'0 0.0
2016-Jun-01 20:33N 29°55' W 089°57'1 0.9
2016-Jun-01 19:33N 29°55' W 089°56'4 4.4
2016-Jun-01 18:33N 29°57' W 090°01'6 6.3
2016-Jun-01 17:33N 29°55' W 090°07'  
2016-May-28 14:08N 29°47' W 092°11'3 5.2
2016-May-28 13:30N 29°48' W 092°14'21 3.1
2016-May-28 06:33N 29°55' W 092°38'3 3.1
2016-May-28 05:33N 29°56' W 092°41'13 1.6
2016-May-27 21:20N 29°56' W 092°56'3 3.5
2016-May-27 20:33N 29°56' W 092°59'3 2.8
2016-May-27 19:33N 29°56' W 093°02'4 3.8
2016-May-27 18:33N 29°56' W 093°07'3 3.4
2016-May-27 17:33N 29°57' W 093°10'4 4.1
2016-May-27 16:33N 30°00' W 093°14'4 3.6
2016-May-27 15:33N 30°03' W 093°16'4 3.7
2016-May-27 14:33N 30°06' W 093°18'0 0.1
2016-May-27 13:33N 30°06' W 093°18'0 0.0
2016-May-27 12:33N 30°06' W 093°18'0 0.0
2016-May-27 11:33N 30°06' W 093°18'0 0.0
2016-May-27 10:33N 30°06' W 093°18'1 0.8
2016-May-27 09:33N 30°06' W 093°19'4 4.2
2016-May-27 08:33N 30°04' W 093°23'5 5.0
2016-May-27 07:33N 30°04' W 093°29'5 5.1
2016-May-27 06:33N 30°04' W 093°35'  
Track history (hours):
 
Tides and Currents Weather Stations Pressure Air Temp Water Temp Dewpoint Dewpoint Depression Visibility Wind Speed Wind Dir Waves Ship Positions

Sea Drift

Owner: Marquette Transportation Company Gulf-Inland, LLC, Jefferson, LA. More information available from US FCC via Universal Licensing System and Coast Guard Vessel Documentation Center.

Last reported at 2016-Jun-06 06:33 UTC. Time now 2016-Jun-27 13:14 UTC.
Position N 29°34' W 094°56'.
Warning: this ship's position is 21 days out of date.

Date/timePositionNaut miles runAvg speedWind from/ knotsBaromVisibWave heightAir tempDewpointWater temp
2016-Jun-06 06:33N 29°34' W 094°56'9 7.6
2016-Jun-06 05:23N 29°27' W 094°50'66 4.4
2016-Jun-05 14:22N 30°01' W 093°45'4 5.3
2016-Jun-05 13:33N 30°04' W 093°41'5 4.5
2016-Jun-05 12:33N 30°04' W 093°36'5 4.8
2016-Jun-05 11:33N 30°04' W 093°31'5 4.7
2016-Jun-05 10:33N 30°04' W 093°25'2 2.3
2016-Jun-05 09:33N 30°04' W 093°23'3 3.1
2016-Jun-05 08:33N 30°05' W 093°20'3 3.2
2016-Jun-05 07:33N 30°04' W 093°16'0 0.1
2016-Jun-05 06:33N 30°04' W 093°16'0 0.1
2016-Jun-05 05:33N 30°04' W 093°16'0 0.1
2016-Jun-05 04:33N 30°04' W 093°16'4 3.8
2016-Jun-05 03:33N 30°01' W 093°14'4 4.4
2016-Jun-05 02:33N 29°57' W 093°11'4 4.0
2016-Jun-05 01:33N 29°56' W 093°06'18 4.4
2016-Jun-04 21:27N 29°58' W 092°45'102 3.4
2016-Jun-03 15:27N 29°32' W 090°51'4 4.8
2016-Jun-03 14:33N 29°32' W 090°46'4 3.7
2016-Jun-03 13:33N 29°34' W 090°43'0 0.1
2016-Jun-03 12:33N 29°34' W 090°43'3 2.7
2016-Jun-03 11:33N 29°37' W 090°42'4 3.9
2016-Jun-03 10:33N 29°35' W 090°38'3 3.4
2016-Jun-03 09:33N 29°34' W 090°34'4 4.1
2016-Jun-03 08:33N 29°34' W 090°29'26 2.9
2016-Jun-02 23:30N 29°47' W 090°04'0 0.5
2016-Jun-02 22:33N 29°47' W 090°04'2 1.9
2016-Jun-02 21:33N 29°49' W 090°04'3 3.4
2016-Jun-02 20:33N 29°52' W 090°01'2 2.1
2016-Jun-02 19:33N 29°50' W 090°03'0 0.0
2016-Jun-02 18:33N 29°50' W 090°03'0 0.0
2016-Jun-02 17:33N 29°50' W 090°03'0 0.0
2016-Jun-02 16:33N 29°50' W 090°03'2 2.1
2016-Jun-02 15:33N 29°52' W 090°01'2 0.7
2016-Jun-02 12:16N 29°53' W 089°60'0 0.0
2016-Jun-02 11:33N 29°53' W 089°60'2 1.6
2016-Jun-02 10:33N 29°55' W 089°59'0 0.5
2016-Jun-02 09:33N 29°55' W 089°58'1 1.1
2016-Jun-02 08:33N 29°55' W 089°57'0 0.0
2016-Jun-02 07:31N 29°55' W 089°57'0 0.0
2016-Jun-02 06:33N 29°55' W 089°57'0 0.0
2016-Jun-02 05:33N 29°55' W 089°57'0 0.0
2016-Jun-02 04:21N 29°55' W 089°57'0 0.0
2016-Jun-02 03:33N 29°55' W 089°57'0 0.0
2016-Jun-02 02:32N 29°55' W 089°57'0 0.0
2016-Jun-02 01:32N 29°55' W 089°57'0 0.0
2016-Jun-02 00:31N 29°55' W 089°57'0 0.0
2016-Jun-01 23:33N 29°55' W 089°57'0 0.0
2016-Jun-01 22:33N 29°55' W 089°57'0 0.0
2016-Jun-01 21:33N 29°55' W 089°57'0 0.0
2016-Jun-01 20:33N 29°55' W 089°57'1 0.9
2016-Jun-01 19:33N 29°55' W 089°56'4 4.4
2016-Jun-01 18:33N 29°57' W 090°01'6 6.3
2016-Jun-01 17:33N 29°55' W 090°07'  
2016-May-28 14:08N 29°47' W 092°11'3 5.2
2016-May-28 13:30N 29°48' W 092°14'21 3.1
2016-May-28 06:33N 29°55' W 092°38'3 3.1
2016-May-28 05:33N 29°56' W 092°41'13 1.6
2016-May-27 21:20N 29°56' W 092°56'3 3.5
2016-May-27 20:33N 29°56' W 092°59'3 2.8
2016-May-27 19:33N 29°56' W 093°02'4 3.8
2016-May-27 18:33N 29°56' W 093°07'3 3.4
2016-May-27 17:33N 29°57' W 093°10'4 4.1
2016-May-27 16:33N 30°00' W 093°14'4 3.6
2016-May-27 15:33N 30°03' W 093°16'4 3.7
2016-May-27 14:33N 30°06' W 093°18'0 0.1
2016-May-27 13:33N 30°06' W 093°18'0 0.0
2016-May-27 12:33N 30°06' W 093°18'0 0.0
2016-May-27 11:33N 30°06' W 093°18'0 0.0
2016-May-27 10:33N 30°06' W 093°18'1 0.8
2016-May-27 09:33N 30°06' W 093°19'4 4.2
2016-May-27 08:33N 30°04' W 093°23'5 5.0
2016-May-27 07:33N 30°04' W 093°29'5 5.1
2016-May-27 06:33N 30°04' W 093°35'  

Dump ship's entire track history